sensor_id;sensor_type;location;lat;lon;timestamp;P1;durP1;ratioP1;P2;durP2;ratioP2
67861;SDS011;54665;51.462;6.698;2022-11-09T00:01:14;4.30;;;2.20;;
67861;SDS011;54665;51.462;6.698;2022-11-09T00:03:39;6.93;;;2.13;;
67861;SDS011;54665;51.462;6.698;2022-11-09T00:06:05;6.00;;;2.40;;
67861;SDS011;54665;51.462;6.698;2022-11-09T00:08:30;5.10;;;2.10;;
67861;SDS011;54665;51.462;6.698;2022-11-09T00:11:01;4.70;;;1.97;;
67861;SDS011;54665;51.462;6.698;2022-11-09T00:13:27;5.78;;;1.90;;
67861;SDS011;54665;51.462;6.698;2022-11-09T00:15:56;4.07;;;2.00;;
67861;SDS011;54665;51.462;6.698;2022-11-09T00:18:22;5.22;;;2.00;;
67861;SDS011;54665;51.462;6.698;2022-11-09T00:20:48;4.47;;;1.63;;
67861;SDS011;54665;51.462;6.698;2022-11-09T00:23:14;4.72;;;1.88;;
67861;SDS011;54665;51.462;6.698;2022-11-09T00:25:40;3.97;;;1.70;;
67861;SDS011;54665;51.462;6.698;2022-11-09T00:28:05;4.65;;;1.90;;
67861;SDS011;54665;51.462;6.698;2022-11-09T00:30:31;4.50;;;1.97;;
67861;SDS011;54665;51.462;6.698;2022-11-09T00:32:56;3.53;;;1.80;;
67861;SDS011;54665;51.462;6.698;2022-11-09T00:35:22;4.63;;;2.00;;
67861;SDS011;54665;51.462;6.698;2022-11-09T00:37:47;6.03;;;1.70;;
67861;SDS011;54665;51.462;6.698;2022-11-09T00:40:12;4.40;;;1.60;;
67861;SDS011;54665;51.462;6.698;2022-11-09T00:42:38;5.00;;;1.65;;
67861;SDS011;54665;51.462;6.698;2022-11-09T00:45:03;3.73;;;1.60;;
67861;SDS011;54665;51.462;6.698;2022-11-09T00:47:31;3.80;;;1.90;;
67861;SDS011;54665;51.462;6.698;2022-11-09T00:49:56;4.30;;;1.87;;
67861;SDS011;54665;51.462;6.698;2022-11-09T00:52:21;6.60;;;2.20;;
67861;SDS011;54665;51.462;6.698;2022-11-09T00:54:47;5.40;;;1.87;;
67861;SDS011;54665;51.462;6.698;2022-11-09T00:57:12;3.50;;;1.73;;
67861;SDS011;54665;51.462;6.698;2022-11-09T00:59:42;4.68;;;1.70;;
67861;SDS011;54665;51.462;6.698;2022-11-09T01:02:07;4.43;;;1.60;;
67861;SDS011;54665;51.462;6.698;2022-11-09T01:04:32;5.20;;;1.80;;
67861;SDS011;54665;51.462;6.698;2022-11-09T01:06:58;3.33;;;1.33;;
67861;SDS011;54665;51.462;6.698;2022-11-09T01:09:23;2.57;;;1.50;;
67861;SDS011;54665;51.462;6.698;2022-11-09T01:11:49;2.90;;;1.50;;
67861;SDS011;54665;51.462;6.698;2022-11-09T01:14:15;4.43;;;1.60;;
67861;SDS011;54665;51.462;6.698;2022-11-09T01:16:40;3.53;;;1.47;;
67861;SDS011;54665;51.462;6.698;2022-11-09T01:19:05;5.93;;;1.70;;
67861;SDS011;54665;51.462;6.698;2022-11-09T01:21:31;4.13;;;1.55;;
67861;SDS011;54665;51.462;6.698;2022-11-09T01:23:58;3.63;;;1.60;;
67861;SDS011;54665;51.462;6.698;2022-11-09T01:26:25;5.20;;;1.40;;
67861;SDS011;54665;51.462;6.698;2022-11-09T01:28:51;5.30;;;1.73;;
67861;SDS011;54665;51.462;6.698;2022-11-09T01:31:17;4.13;;;1.70;;
67861;SDS011;54665;51.462;6.698;2022-11-09T01:33:44;3.47;;;1.50;;
67861;SDS011;54665;51.462;6.698;2022-11-09T01:36:11;4.80;;;1.60;;
67861;SDS011;54665;51.462;6.698;2022-11-09T01:38:41;5.28;;;1.80;;
67861;SDS011;54665;51.462;6.698;2022-11-09T01:41:08;3.88;;;1.50;;
67861;SDS011;54665;51.462;6.698;2022-11-09T01:43:37;5.70;;;1.57;;
67861;SDS011;54665;51.462;6.698;2022-11-09T01:46:10;7.25;;;1.45;;
67861;SDS011;54665;51.462;6.698;2022-11-09T01:51:13;3.95;;;1.58;;
67861;SDS011;54665;51.462;6.698;2022-11-09T01:53:52;3.28;;;1.50;;
67861;SDS011;54665;51.462;6.698;2022-11-09T01:56:25;4.17;;;1.60;;
67861;SDS011;54665;51.462;6.698;2022-11-09T01:58:53;3.58;;;1.40;;
67861;SDS011;54665;51.462;6.698;2022-11-09T02:01:23;5.18;;;1.40;;
67861;SDS011;54665;51.462;6.698;2022-11-09T02:03:50;3.67;;;1.40;;
67861;SDS011;54665;51.462;6.698;2022-11-09T02:06:22;3.67;;;1.50;;
67861;SDS011;54665;51.462;6.698;2022-11-09T02:08:52;3.65;;;1.45;;
67861;SDS011;54665;51.462;6.698;2022-11-09T02:11:21;3.38;;;1.25;;
67861;SDS011;54665;51.462;6.698;2022-11-09T02:13:50;6.18;;;1.30;;
67861;SDS011;54665;51.462;6.698;2022-11-09T02:16:19;4.97;;;1.33;;
67861;SDS011;54665;51.462;6.698;2022-11-09T02:18:50;4.40;;;1.30;;
67861;SDS011;54665;51.462;6.698;2022-11-09T02:21:18;5.28;;;1.40;;
67861;SDS011;54665;51.462;6.698;2022-11-09T02:23:45;5.37;;;1.40;;
67861;SDS011;54665;51.462;6.698;2022-11-09T02:26:13;4.85;;;1.45;;
67861;SDS011;54665;51.462;6.698;2022-11-09T02:28:43;3.92;;;1.30;;
67861;SDS011;54665;51.462;6.698;2022-11-09T02:31:09;2.90;;;1.20;;
67861;SDS011;54665;51.462;6.698;2022-11-09T02:33:43;3.77;;;1.40;;
67861;SDS011;54665;51.462;6.698;2022-11-09T02:36:14;4.30;;;1.40;;
67861;SDS011;54665;51.462;6.698;2022-11-09T02:38:40;3.47;;;1.30;;
67861;SDS011;54665;51.462;6.698;2022-11-09T02:41:05;3.92;;;1.10;;
67861;SDS011;54665;51.462;6.698;2022-11-09T02:43:31;5.97;;;1.27;;
67861;SDS011;54665;51.462;6.698;2022-11-09T02:45:58;4.25;;;1.30;;
67861;SDS011;54665;51.462;6.698;2022-11-09T02:48:24;3.63;;;1.20;;
67861;SDS011;54665;51.462;6.698;2022-11-09T02:50:49;3.10;;;1.33;;
67861;SDS011;54665;51.462;6.698;2022-11-09T02:53:14;5.37;;;1.20;;
67861;SDS011;54665;51.462;6.698;2022-11-09T02:55:43;10.18;;;1.50;;
67861;SDS011;54665;51.462;6.698;2022-11-09T02:58:08;5.70;;;1.20;;
67861;SDS011;54665;51.462;6.698;2022-11-09T03:00:34;5.03;;;1.20;;
67861;SDS011;54665;51.462;6.698;2022-11-09T03:03:00;4.07;;;1.30;;
67861;SDS011;54665;51.462;6.698;2022-11-09T03:05:25;4.57;;;1.17;;
67861;SDS011;54665;51.462;6.698;2022-11-09T03:07:51;3.65;;;1.10;;
67861;SDS011;54665;51.462;6.698;2022-11-09T03:10:17;4.33;;;1.20;;
67861;SDS011;54665;51.462;6.698;2022-11-09T03:12:42;6.00;;;1.50;;
67861;SDS011;54665;51.462;6.698;2022-11-09T03:15:11;3.57;;;1.17;;
67861;SDS011;54665;51.462;6.698;2022-11-09T03:17:41;5.95;;;1.08;;
67861;SDS011;54665;51.462;6.698;2022-11-09T03:20:06;4.10;;;1.27;;
67861;SDS011;54665;51.462;6.698;2022-11-09T03:22:32;5.00;;;1.15;;
67861;SDS011;54665;51.462;6.698;2022-11-09T03:24:59;3.40;;;1.05;;
67861;SDS011;54665;51.462;6.698;2022-11-09T03:27:25;3.00;;;0.90;;
67861;SDS011;54665;51.462;6.698;2022-11-09T03:29:50;3.33;;;0.93;;
67861;SDS011;54665;51.462;6.698;2022-11-09T03:32:16;4.67;;;1.20;;
67861;SDS011;54665;51.462;6.698;2022-11-09T03:34:41;4.07;;;1.03;;
67861;SDS011;54665;51.462;6.698;2022-11-09T03:37:07;7.40;;;1.20;;
67861;SDS011;54665;51.462;6.698;2022-11-09T03:39:33;5.55;;;1.17;;
67861;SDS011;54665;51.462;6.698;2022-11-09T03:41:58;3.07;;;1.00;;
67861;SDS011;54665;51.462;6.698;2022-11-09T03:44:24;5.05;;;1.20;;
67861;SDS011;54665;51.462;6.698;2022-11-09T03:46:50;3.43;;;1.00;;
67861;SDS011;54665;51.462;6.698;2022-11-09T03:49:15;2.73;;;0.87;;
67861;SDS011;54665;51.462;6.698;2022-11-09T03:51:40;5.17;;;1.07;;
67861;SDS011;54665;51.462;6.698;2022-11-09T03:54:06;7.70;;;1.20;;
67861;SDS011;54665;51.462;6.698;2022-11-09T03:56:31;6.33;;;0.93;;
67861;SDS011;54665;51.462;6.698;2022-11-09T03:58:57;4.97;;;1.27;;
67861;SDS011;54665;51.462;6.698;2022-11-09T04:01:22;4.23;;;1.00;;
67861;SDS011;54665;51.462;6.698;2022-11-09T04:03:48;3.60;;;1.00;;
67861;SDS011;54665;51.462;6.698;2022-11-09T04:06:13;4.63;;;0.90;;
67861;SDS011;54665;51.462;6.698;2022-11-09T04:08:38;7.40;;;1.10;;
67861;SDS011;54665;51.462;6.698;2022-11-09T04:11:04;4.27;;;1.20;;
67861;SDS011;54665;51.462;6.698;2022-11-09T04:13:29;3.80;;;0.90;;
67861;SDS011;54665;51.462;6.698;2022-11-09T04:15:54;2.73;;;0.93;;
67861;SDS011;54665;51.462;6.698;2022-11-09T04:18:20;6.32;;;1.25;;
67861;SDS011;54665;51.462;6.698;2022-11-09T04:20:45;6.17;;;1.30;;
67861;SDS011;54665;51.462;6.698;2022-11-09T04:23:11;3.80;;;1.00;;
67861;SDS011;54665;51.462;6.698;2022-11-09T04:25:38;3.97;;;1.00;;
67861;SDS011;54665;51.462;6.698;2022-11-09T04:28:05;3.72;;;1.10;;
67861;SDS011;54665;51.462;6.698;2022-11-09T04:30:32;4.03;;;1.10;;
67861;SDS011;54665;51.462;6.698;2022-11-09T04:32:59;7.40;;;1.02;;
67861;SDS011;54665;51.462;6.698;2022-11-09T04:35:25;4.95;;;1.00;;
67861;SDS011;54665;51.462;6.698;2022-11-09T04:37:55;4.30;;;1.30;;
67861;SDS011;54665;51.462;6.698;2022-11-09T04:40:22;5.13;;;1.10;;
67861;SDS011;54665;51.462;6.698;2022-11-09T04:42:49;3.73;;;1.10;;
67861;SDS011;54665;51.462;6.698;2022-11-09T04:45:14;3.78;;;1.30;;
67861;SDS011;54665;51.462;6.698;2022-11-09T04:47:40;5.03;;;1.20;;
67861;SDS011;54665;51.462;6.698;2022-11-09T04:50:05;6.70;;;1.30;;
67861;SDS011;54665;51.462;6.698;2022-11-09T04:52:31;4.65;;;0.90;;
67861;SDS011;54665;51.462;6.698;2022-11-09T04:54:56;4.43;;;1.10;;
67861;SDS011;54665;51.462;6.698;2022-11-09T04:57:22;3.43;;;1.00;;
67861;SDS011;54665;51.462;6.698;2022-11-09T04:59:47;4.70;;;1.13;;
67861;SDS011;54665;51.462;6.698;2022-11-09T05:02:13;4.93;;;1.20;;
67861;SDS011;54665;51.462;6.698;2022-11-09T05:04:38;3.40;;;1.10;;
67861;SDS011;54665;51.462;6.698;2022-11-09T05:07:03;8.63;;;1.27;;
67861;SDS011;54665;51.462;6.698;2022-11-09T05:09:29;5.55;;;1.02;;
67861;SDS011;54665;51.462;6.698;2022-11-09T05:11:54;5.63;;;1.10;;
67861;SDS011;54665;51.462;6.698;2022-11-09T05:14:19;7.33;;;1.23;;
67861;SDS011;54665;51.462;6.698;2022-11-09T05:16:45;5.97;;;1.10;;
67861;SDS011;54665;51.462;6.698;2022-11-09T05:19:10;8.33;;;1.20;;
67861;SDS011;54665;51.462;6.698;2022-11-09T05:21:36;4.23;;;0.90;;
67861;SDS011;54665;51.462;6.698;2022-11-09T05:24:01;6.05;;;1.13;;
67861;SDS011;54665;51.462;6.698;2022-11-09T05:26:34;4.57;;;1.00;;
67861;SDS011;54665;51.462;6.698;2022-11-09T05:29:03;6.90;;;1.10;;
67861;SDS011;54665;51.462;6.698;2022-11-09T05:31:30;5.00;;;0.93;;
67861;SDS011;54665;51.462;6.698;2022-11-09T05:33:56;5.87;;;1.20;;
67861;SDS011;54665;51.462;6.698;2022-11-09T05:36:21;7.07;;;1.00;;
67861;SDS011;54665;51.462;6.698;2022-11-09T05:38:48;3.03;;;1.10;;
67861;SDS011;54665;51.462;6.698;2022-11-09T05:41:14;4.97;;;1.10;;
67861;SDS011;54665;51.462;6.698;2022-11-09T05:43:39;5.97;;;1.15;;
67861;SDS011;54665;51.462;6.698;2022-11-09T05:46:05;6.13;;;1.20;;
67861;SDS011;54665;51.462;6.698;2022-11-09T05:48:30;3.60;;;1.00;;
67861;SDS011;54665;51.462;6.698;2022-11-09T05:50:59;4.17;;;1.00;;
67861;SDS011;54665;51.462;6.698;2022-11-09T05:53:25;5.55;;;1.00;;
67861;SDS011;54665;51.462;6.698;2022-11-09T05:55:51;3.78;;;1.00;;
67861;SDS011;54665;51.462;6.698;2022-11-09T05:58:17;5.30;;;1.20;;
67861;SDS011;54665;51.462;6.698;2022-11-09T06:00:42;6.50;;;1.10;;
67861;SDS011;54665;51.462;6.698;2022-11-09T06:03:08;5.05;;;1.10;;
67861;SDS011;54665;51.462;6.698;2022-11-09T06:05:35;6.77;;;1.10;;
67861;SDS011;54665;51.462;6.698;2022-11-09T06:08:11;4.45;;;1.10;;
67861;SDS011;54665;51.462;6.698;2022-11-09T06:10:38;5.85;;;1.08;;
67861;SDS011;54665;51.462;6.698;2022-11-09T06:13:04;4.68;;;1.23;;
67861;SDS011;54665;51.462;6.698;2022-11-09T06:15:30;3.27;;;1.00;;
67861;SDS011;54665;51.462;6.698;2022-11-09T06:17:56;9.88;;;1.63;;
67861;SDS011;54665;51.462;6.698;2022-11-09T06:20:22;2.77;;;0.90;;
67861;SDS011;54665;51.462;6.698;2022-11-09T06:22:53;3.30;;;0.80;;
67861;SDS011;54665;51.462;6.698;2022-11-09T06:25:23;4.63;;;1.20;;
67861;SDS011;54665;51.462;6.698;2022-11-09T06:27:48;5.43;;;1.38;;
67861;SDS011;54665;51.462;6.698;2022-11-09T06:30:14;5.97;;;1.20;;
67861;SDS011;54665;51.462;6.698;2022-11-09T06:32:40;7.32;;;1.10;;
67861;SDS011;54665;51.462;6.698;2022-11-09T06:35:05;6.47;;;1.23;;
67861;SDS011;54665;51.462;6.698;2022-11-09T06:37:31;4.30;;;1.20;;
67861;SDS011;54665;51.462;6.698;2022-11-09T06:39:57;5.53;;;1.10;;
67861;SDS011;54665;51.462;6.698;2022-11-09T06:42:22;3.97;;;1.00;;
67861;SDS011;54665;51.462;6.698;2022-11-09T06:44:47;5.63;;;1.17;;
67861;SDS011;54665;51.462;6.698;2022-11-09T06:47:13;5.83;;;1.20;;
67861;SDS011;54665;51.462;6.698;2022-11-09T06:49:38;6.18;;;1.10;;
67861;SDS011;54665;51.462;6.698;2022-11-09T06:52:03;5.83;;;1.30;;
67861;SDS011;54665;51.462;6.698;2022-11-09T06:54:29;5.30;;;1.23;;
67861;SDS011;54665;51.462;6.698;2022-11-09T06:56:55;5.32;;;1.40;;
67861;SDS011;54665;51.462;6.698;2022-11-09T06:59:20;4.50;;;1.30;;
67861;SDS011;54665;51.462;6.698;2022-11-09T07:01:49;4.38;;;1.20;;
67861;SDS011;54665;51.462;6.698;2022-11-09T07:04:15;4.03;;;1.10;;
67861;SDS011;54665;51.462;6.698;2022-11-09T07:06:40;6.30;;;1.37;;
67861;SDS011;54665;51.462;6.698;2022-11-09T07:09:07;6.45;;;1.42;;
67861;SDS011;54665;51.462;6.698;2022-11-09T07:11:33;4.35;;;1.40;;
67861;SDS011;54665;51.462;6.698;2022-11-09T07:13:58;6.97;;;1.30;;
67861;SDS011;54665;51.462;6.698;2022-11-09T07:16:25;7.03;;;1.25;;
67861;SDS011;54665;51.462;6.698;2022-11-09T07:18:51;5.37;;;1.20;;
67861;SDS011;54665;51.462;6.698;2022-11-09T07:21:16;6.97;;;1.23;;
67861;SDS011;54665;51.462;6.698;2022-11-09T07:23:41;5.00;;;1.10;;
67861;SDS011;54665;51.462;6.698;2022-11-09T07:26:07;5.00;;;1.03;;
67861;SDS011;54665;51.462;6.698;2022-11-09T07:28:33;5.10;;;1.13;;
67861;SDS011;54665;51.462;6.698;2022-11-09T07:30:59;4.20;;;1.30;;
67861;SDS011;54665;51.462;6.698;2022-11-09T07:33:24;5.70;;;1.27;;
67861;SDS011;54665;51.462;6.698;2022-11-09T07:35:50;4.60;;;1.10;;
67861;SDS011;54665;51.462;6.698;2022-11-09T07:38:16;4.93;;;1.00;;
67861;SDS011;54665;51.462;6.698;2022-11-09T07:40:41;4.93;;;1.30;;
67861;SDS011;54665;51.462;6.698;2022-11-09T07:43:09;3.90;;;1.00;;
67861;SDS011;54665;51.462;6.698;2022-11-09T07:45:37;6.13;;;1.03;;
67861;SDS011;54665;51.462;6.698;2022-11-09T07:48:04;6.22;;;1.30;;
67861;SDS011;54665;51.462;6.698;2022-11-09T07:50:31;4.45;;;1.27;;
67861;SDS011;54665;51.462;6.698;2022-11-09T07:52:58;4.88;;;1.27;;
67861;SDS011;54665;51.462;6.698;2022-11-09T07:55:25;4.10;;;1.10;;
67861;SDS011;54665;51.462;6.698;2022-11-09T07:57:56;4.90;;;1.10;;
67861;SDS011;54665;51.462;6.698;2022-11-09T08:00:23;3.03;;;1.00;;
67861;SDS011;54665;51.462;6.698;2022-11-09T08:02:49;5.05;;;0.90;;
67861;SDS011;54665;51.462;6.698;2022-11-09T08:05:14;3.53;;;1.00;;
67861;SDS011;54665;51.462;6.698;2022-11-09T08:07:40;3.70;;;1.10;;
67861;SDS011;54665;51.462;6.698;2022-11-09T08:10:05;2.97;;;0.80;;
67861;SDS011;54665;51.462;6.698;2022-11-09T08:12:31;3.93;;;0.80;;
67861;SDS011;54665;51.462;6.698;2022-11-09T08:14:56;2.83;;;0.70;;
67861;SDS011;54665;51.462;6.698;2022-11-09T08:17:21;3.97;;;0.90;;
67861;SDS011;54665;51.462;6.698;2022-11-09T08:19:47;4.63;;;1.20;;
67861;SDS011;54665;51.462;6.698;2022-11-09T08:22:12;5.10;;;1.10;;
67861;SDS011;54665;51.462;6.698;2022-11-09T08:24:37;2.75;;;0.90;;
67861;SDS011;54665;51.462;6.698;2022-11-09T08:27:03;4.27;;;1.00;;
67861;SDS011;54665;51.462;6.698;2022-11-09T08:29:28;5.80;;;1.20;;
67861;SDS011;54665;51.462;6.698;2022-11-09T08:31:54;4.30;;;0.90;;
67861;SDS011;54665;51.462;6.698;2022-11-09T08:34:19;2.73;;;0.90;;
67861;SDS011;54665;51.462;6.698;2022-11-09T08:36:44;4.45;;;1.10;;
67861;SDS011;54665;51.462;6.698;2022-11-09T08:39:10;5.43;;;1.30;;
67861;SDS011;54665;51.462;6.698;2022-11-09T08:41:35;4.63;;;1.07;;
67861;SDS011;54665;51.462;6.698;2022-11-09T08:44:01;4.93;;;0.90;;
67861;SDS011;54665;51.462;6.698;2022-11-09T08:46:26;3.50;;;0.80;;
67861;SDS011;54665;51.462;6.698;2022-11-09T08:48:52;4.37;;;0.90;;
67861;SDS011;54665;51.462;6.698;2022-11-09T08:51:17;2.90;;;0.90;;
67861;SDS011;54665;51.462;6.698;2022-11-09T08:53:43;4.65;;;0.90;;
67861;SDS011;54665;51.462;6.698;2022-11-09T08:56:08;1.87;;;0.90;;
67861;SDS011;54665;51.462;6.698;2022-11-09T08:58:35;6.97;;;1.13;;
67861;SDS011;54665;51.462;6.698;2022-11-09T09:01:01;2.87;;;1.07;;
67861;SDS011;54665;51.462;6.698;2022-11-09T09:03:30;2.63;;;1.00;;
67861;SDS011;54665;51.462;6.698;2022-11-09T09:05:56;3.40;;;1.00;;
67861;SDS011;54665;51.462;6.698;2022-11-09T09:08:21;3.77;;;0.87;;
67861;SDS011;54665;51.462;6.698;2022-11-09T09:10:47;3.83;;;1.00;;
67861;SDS011;54665;51.462;6.698;2022-11-09T09:13:12;4.77;;;0.90;;
67861;SDS011;54665;51.462;6.698;2022-11-09T09:15:38;4.33;;;1.00;;
67861;SDS011;54665;51.462;6.698;2022-11-09T09:18:03;3.55;;;1.23;;
67861;SDS011;54665;51.462;6.698;2022-11-09T09:20:29;3.55;;;0.80;;
67861;SDS011;54665;51.462;6.698;2022-11-09T09:22:58;3.93;;;0.90;;
67861;SDS011;54665;51.462;6.698;2022-11-09T09:25:24;4.05;;;0.95;;
67861;SDS011;54665;51.462;6.698;2022-11-09T09:27:50;4.10;;;1.08;;
67861;SDS011;54665;51.462;6.698;2022-11-09T09:30:16;3.20;;;0.90;;
67861;SDS011;54665;51.462;6.698;2022-11-09T09:32:41;3.95;;;0.95;;
67861;SDS011;54665;51.462;6.698;2022-11-09T09:35:07;4.63;;;0.93;;
67861;SDS011;54665;51.462;6.698;2022-11-09T09:37:32;3.93;;;1.20;;
67861;SDS011;54665;51.462;6.698;2022-11-09T09:39:58;5.50;;;1.10;;
67861;SDS011;54665;51.462;6.698;2022-11-09T09:42:26;6.17;;;0.90;;
67861;SDS011;54665;51.462;6.698;2022-11-09T09:45:21;4.63;;;1.00;;
67861;SDS011;54665;51.462;6.698;2022-11-09T09:48:04;3.90;;;0.87;;
67861;SDS011;54665;51.462;6.698;2022-11-09T09:50:55;3.80;;;0.85;;
67861;SDS011;54665;51.462;6.698;2022-11-09T09:56:05;3.15;;;0.75;;
67861;SDS011;54665;51.462;6.698;2022-11-09T09:58:35;4.80;;;1.10;;
67861;SDS011;54665;51.462;6.698;2022-11-09T10:01:15;4.47;;;0.90;;
67861;SDS011;54665;51.462;6.698;2022-11-09T10:03:44;2.72;;;0.70;;
67861;SDS011;54665;51.462;6.698;2022-11-09T10:12:20;4.25;;;1.00;;
67861;SDS011;54665;51.462;6.698;2022-11-09T10:17:45;2.97;;;0.80;;
67861;SDS011;54665;51.462;6.698;2022-11-09T10:23:17;4.88;;;1.08;;
67861;SDS011;54665;51.462;6.698;2022-11-09T10:26:02;4.88;;;1.10;;
67861;SDS011;54665;51.462;6.698;2022-11-09T10:28:35;4.43;;;0.90;;
67861;SDS011;54665;51.462;6.698;2022-11-09T10:31:09;3.70;;;1.00;;
67861;SDS011;54665;51.462;6.698;2022-11-09T10:33:41;5.03;;;1.00;;
67861;SDS011;54665;51.462;6.698;2022-11-09T10:39:10;3.67;;;0.85;;
67861;SDS011;54665;51.462;6.698;2022-11-09T10:41:57;3.20;;;0.93;;
67861;SDS011;54665;51.462;6.698;2022-11-09T10:44:41;3.55;;;0.80;;
67861;SDS011;54665;51.462;6.698;2022-11-09T10:47:25;4.85;;;0.93;;
67861;SDS011;54665;51.462;6.698;2022-11-09T10:50:20;2.72;;;0.80;;
67861;SDS011;54665;51.462;6.698;2022-11-09T10:53:27;4.53;;;1.08;;
67861;SDS011;54665;51.462;6.698;2022-11-09T10:56:15;5.53;;;0.90;;
67861;SDS011;54665;51.462;6.698;2022-11-09T10:59:01;5.47;;;0.90;;
67861;SDS011;54665;51.462;6.698;2022-11-09T11:01:45;4.22;;;1.08;;
67861;SDS011;54665;51.462;6.698;2022-11-09T11:04:29;5.90;;;0.80;;
67861;SDS011;54665;51.462;6.698;2022-11-09T11:07:13;3.42;;;1.08;;
67861;SDS011;54665;51.462;6.698;2022-11-09T11:15:44;4.70;;;0.85;;
67861;SDS011;54665;51.462;6.698;2022-11-09T11:18:28;4.00;;;0.82;;
67861;SDS011;54665;51.462;6.698;2022-11-09T11:21:17;2.65;;;0.73;;
67861;SDS011;54665;51.462;6.698;2022-11-09T11:24:14;6.77;;;0.50;;
67861;SDS011;54665;51.462;6.698;2022-11-09T11:27:05;3.25;;;0.70;;
67861;SDS011;54665;51.462;6.698;2022-11-09T11:32:53;5.95;;;0.80;;
67861;SDS011;54665;51.462;6.698;2022-11-09T11:35:40;2.85;;;0.65;;
67861;SDS011;54665;51.462;6.698;2022-11-09T11:38:40;3.83;;;0.70;;
67861;SDS011;54665;51.462;6.698;2022-11-09T11:42:17;3.15;;;0.60;;
67861;SDS011;54665;51.462;6.698;2022-11-09T11:48:00;5.28;;;0.65;;
67861;SDS011;54665;51.462;6.698;2022-11-09T11:51:09;5.32;;;1.00;;
67861;SDS011;54665;51.462;6.698;2022-11-09T12:00:20;2.38;;;0.43;;
67861;SDS011;54665;51.462;6.698;2022-11-09T12:03:25;5.20;;;0.60;;
67861;SDS011;54665;51.462;6.698;2022-11-09T12:10:12;4.57;;;0.87;;
67861;SDS011;54665;51.462;6.698;2022-11-09T12:13:35;2.70;;;0.50;;
67861;SDS011;54665;51.462;6.698;2022-11-09T12:16:33;3.08;;;0.75;;
67861;SDS011;54665;51.462;6.698;2022-11-09T12:32:05;3.78;;;0.80;;
67861;SDS011;54665;51.462;6.698;2022-11-09T12:41:00;5.60;;;0.97;;
67861;SDS011;54665;51.462;6.698;2022-11-09T12:43:59;3.45;;;0.80;;
67861;SDS011;54665;51.462;6.698;2022-11-09T12:46:50;6.38;;;0.73;;
67861;SDS011;54665;51.462;6.698;2022-11-09T12:49:40;3.00;;;0.65;;
67861;SDS011;54665;51.462;6.698;2022-11-09T12:52:27;5.55;;;0.82;;
67861;SDS011;54665;51.462;6.698;2022-11-09T12:55:12;5.10;;;0.97;;
67861;SDS011;54665;51.462;6.698;2022-11-09T12:58:20;4.13;;;0.95;;
67861;SDS011;54665;51.462;6.698;2022-11-09T13:01:09;3.78;;;0.88;;
67861;SDS011;54665;51.462;6.698;2022-11-09T13:03:56;5.35;;;1.10;;
67861;SDS011;54665;51.462;6.698;2022-11-09T13:06:41;10.43;;;0.93;;
67861;SDS011;54665;51.462;6.698;2022-11-09T13:09:51;5.17;;;0.70;;
67861;SDS011;54665;51.462;6.698;2022-11-09T13:12:39;4.18;;;1.00;;
67861;SDS011;54665;51.462;6.698;2022-11-09T13:15:28;3.58;;;0.80;;
67861;SDS011;54665;51.462;6.698;2022-11-09T13:27:31;7.25;;;0.90;;
67861;SDS011;54665;51.462;6.698;2022-11-09T13:33:15;6.00;;;0.98;;
67861;SDS011;54665;51.462;6.698;2022-11-09T13:42:27;4.70;;;0.80;;
67861;SDS011;54665;51.462;6.698;2022-11-09T13:45:24;4.85;;;0.95;;
67861;SDS011;54665;51.462;6.698;2022-11-09T13:54:34;4.43;;;0.93;;
67861;SDS011;54665;51.462;6.698;2022-11-09T13:57:20;4.72;;;0.80;;
67861;SDS011;54665;51.462;6.698;2022-11-09T14:00:09;5.03;;;0.82;;
67861;SDS011;54665;51.462;6.698;2022-11-09T14:03:02;5.28;;;0.80;;
67861;SDS011;54665;51.462;6.698;2022-11-09T14:06:00;4.88;;;0.93;;
67861;SDS011;54665;51.462;6.698;2022-11-09T14:08:45;3.83;;;0.90;;
67861;SDS011;54665;51.462;6.698;2022-11-09T14:11:41;5.53;;;0.88;;
67861;SDS011;54665;51.462;6.698;2022-11-09T14:14:43;2.97;;;0.90;;
67861;SDS011;54665;51.462;6.698;2022-11-09T14:20:49;4.97;;;1.10;;
67861;SDS011;54665;51.462;6.698;2022-11-09T14:23:34;5.10;;;0.90;;
67861;SDS011;54665;51.462;6.698;2022-11-09T14:26:20;4.00;;;0.90;;
67861;SDS011;54665;51.462;6.698;2022-11-09T14:35:32;6.68;;;1.00;;
67861;SDS011;54665;51.462;6.698;2022-11-09T14:38:19;6.80;;;1.23;;
67861;SDS011;54665;51.462;6.698;2022-11-09T14:41:10;5.03;;;1.25;;
67861;SDS011;54665;51.462;6.698;2022-11-09T14:44:02;4.72;;;0.98;;
67861;SDS011;54665;51.462;6.698;2022-11-09T14:46:50;5.43;;;1.05;;
67861;SDS011;54665;51.462;6.698;2022-11-09T14:49:36;5.60;;;1.02;;
67861;SDS011;54665;51.462;6.698;2022-11-09T14:52:21;5.20;;;0.90;;
67861;SDS011;54665;51.462;6.698;2022-11-09T14:55:12;6.78;;;1.00;;
67861;SDS011;54665;51.462;6.698;2022-11-09T14:57:58;4.22;;;0.82;;
67861;SDS011;54665;51.462;6.698;2022-11-09T15:00:41;5.53;;;1.00;;
67861;SDS011;54665;51.462;6.698;2022-11-09T15:03:27;4.47;;;1.08;;
67861;SDS011;54665;51.462;6.698;2022-11-09T15:06:16;3.90;;;1.00;;
67861;SDS011;54665;51.462;6.698;2022-11-09T15:09:02;4.18;;;0.90;;
67861;SDS011;54665;51.462;6.698;2022-11-09T15:11:49;4.65;;;0.95;;
67861;SDS011;54665;51.462;6.698;2022-11-09T15:14:34;4.93;;;1.13;;
67861;SDS011;54665;51.462;6.698;2022-11-09T15:17:23;4.68;;;1.10;;
67861;SDS011;54665;51.462;6.698;2022-11-09T15:23:01;6.80;;;1.00;;
67861;SDS011;54665;51.462;6.698;2022-11-09T15:28:31;3.03;;;0.63;;
67861;SDS011;54665;51.462;6.698;2022-11-09T15:31:27;3.42;;;0.80;;
67861;SDS011;54665;51.462;6.698;2022-11-09T15:34:27;2.73;;;0.53;;
67861;SDS011;54665;51.462;6.698;2022-11-09T15:40:15;7.05;;;0.90;;
67861;SDS011;54665;51.462;6.698;2022-11-09T15:43:03;4.55;;;0.88;;
67861;SDS011;54665;51.462;6.698;2022-11-09T15:45:47;4.88;;;0.70;;
67861;SDS011;54665;51.462;6.698;2022-11-09T15:48:31;3.20;;;0.70;;
67861;SDS011;54665;51.462;6.698;2022-11-09T15:51:16;4.40;;;0.70;;
67861;SDS011;54665;51.462;6.698;2022-11-09T15:54:01;3.72;;;0.90;;
67861;SDS011;54665;51.462;6.698;2022-11-09T15:56:45;5.00;;;1.30;;
67861;SDS011;54665;51.462;6.698;2022-11-09T15:59:30;3.92;;;1.00;;
67861;SDS011;54665;51.462;6.698;2022-11-09T16:02:14;7.03;;;1.03;;
67861;SDS011;54665;51.462;6.698;2022-11-09T16:04:58;3.47;;;0.82;;
67861;SDS011;54665;51.462;6.698;2022-11-09T16:07:46;3.00;;;0.80;;
67861;SDS011;54665;51.462;6.698;2022-11-09T16:10:31;5.45;;;1.00;;
67861;SDS011;54665;51.462;6.698;2022-11-09T16:13:20;3.80;;;1.00;;
67861;SDS011;54665;51.462;6.698;2022-11-09T16:16:04;5.20;;;1.40;;
67861;SDS011;54665;51.462;6.698;2022-11-09T16:18:50;3.78;;;1.05;;
67861;SDS011;54665;51.462;6.698;2022-11-09T16:21:34;5.53;;;1.02;;
67861;SDS011;54665;51.462;6.698;2022-11-09T16:24:18;5.05;;;1.20;;
67861;SDS011;54665;51.462;6.698;2022-11-09T16:27:03;5.80;;;1.40;;
67861;SDS011;54665;51.462;6.698;2022-11-09T16:29:48;2.67;;;1.10;;
67861;SDS011;54665;51.462;6.698;2022-11-09T16:32:34;3.50;;;1.60;;
67861;SDS011;54665;51.462;6.698;2022-11-09T16:35:18;7.50;;;2.20;;
67861;SDS011;54665;51.462;6.698;2022-11-09T16:38:02;9.00;;;3.20;;
67861;SDS011;54665;51.462;6.698;2022-11-09T16:40:46;9.82;;;4.85;;
67861;SDS011;54665;51.462;6.698;2022-11-09T16:43:30;8.00;;;3.23;;
67861;SDS011;54665;51.462;6.698;2022-11-09T16:46:22;5.85;;;3.13;;
67861;SDS011;54665;51.462;6.698;2022-11-09T16:49:09;7.00;;;2.03;;
67861;SDS011;54665;51.462;6.698;2022-11-09T16:51:54;9.23;;;3.30;;
67861;SDS011;54665;51.462;6.698;2022-11-09T16:54:38;6.65;;;2.80;;
67861;SDS011;54665;51.462;6.698;2022-11-09T16:57:22;6.37;;;2.00;;
67861;SDS011;54665;51.462;6.698;2022-11-09T17:00:06;7.75;;;2.40;;
67861;SDS011;54665;51.462;6.698;2022-11-09T17:02:51;8.32;;;1.50;;
67861;SDS011;54665;51.462;6.698;2022-11-09T17:05:35;8.35;;;2.53;;
67861;SDS011;54665;51.462;6.698;2022-11-09T17:08:19;7.05;;;1.70;;
67861;SDS011;54665;51.462;6.698;2022-11-09T17:11:07;7.70;;;1.60;;